Skip Navigation LinksHome page > Weather > Current weather Skip Navigation Links

Current Weather

Central Park, New York

For information only: do not use for flight planning or navigation.
Latest weather
Observation time Tuesday, September 30, 2014 10:51 AM EDT
Local time Tuesday, September 30, 2014 11:49 AM EDT
Flight conditions Visual Meteorological Conditions
Winds
Wind direction variable
Wind speed 3 mph
Visibility 9 mi.
Sky condition
Ceiling 5,500 ft. broken clouds
Cloud layer broken clouds 5,500 ft.
Cloud layer overcast 7,500 ft.
Temperature 69°F
Dewpoint 57°F
Altimeter 29.98 in.Hg
Pressure change last 3 hours0.00 in.Hg
Pressure falling more quickly
Derived measurements
Relative humidity 65%
Density altitude 966 ft.
Sea-level pressure 29.95 in.Hg
Remarks
Fully automated report.
System requires maintenance.
Automated weather observing station with precipitation discriminator.
METAR KNYC 301451Z AUTO VRB03KT 9SM BKN055 OVC075 21/14 A2998 RMK AO2 SLP143 T02060139 58001 $

Settings

Location code

InnerDrive.Weather 4.0.5372.0 Release CLR 4.0.30319.34014
Copyright ©2014 Inner Drive Technology. All rights reserved. Portions Copyright ©1986-2014 David Braverman.

Find weather

Site navigation


Skip Navigation Links

Place info

Page info

PayPal - The safer, easier way to pay online!

Return home.

Copyright ©2014 Inner Drive Technology. Purveyors of fine, hand-crafted computer software. Page printed 2014-09-30T15:49:33 UTC.